Time;durP1;ratioP1;P1;durP2;ratioP2;P2;SDS_P1;SDS_P2;PMS_P1;PMS_P2;Temp;Humidity;BMP_temperature;BMP_pressure;BME280_temperature;BME280_humidity;BME280_pressure;Samples;Min_cycle;Max_cycle;Signal;HPM_P1;HPM_P2
2023/11/21 00:01:08;;;;;;;;;;;17.20;92.10;;;;;;5013527;28;20391;-81
2023/11/21 00:03:34;;;;;;;;;;;18.60;92.10;;;;;;5013195;28;19921;-81
2023/11/21 00:06:00;;;;;;;;;;;17.20;92.10;;;;;;5013575;28;19916;-81
2023/11/21 00:08:26;;;;;;;;;;;17.30;92.00;;;;;;5013340;28;20008;-81
2023/11/21 00:10:51;;;;;;;;;;;17.10;92.00;;;;;;5013341;28;20387;-81
2023/11/21 00:13:17;;;;;;;;;;;17.20;92.10;;;;;;5013213;28;19910;-81
2023/11/21 00:15:43;;;;;;;;;;;17.00;92.10;;;;;;5013226;28;20047;-81
2023/11/21 00:18:08;;;;;;;;;;;17.20;92.20;;;;;;5013612;28;19968;-81
2023/11/21 00:20:34;;;;;;;;;;;18.50;92.40;;;;;;5013098;28;19909;-81
2023/11/21 00:23:00;;;;;;;;;;;16.80;91.90;;;;;;5013292;28;19914;-81
2023/11/21 00:25:26;;;;;;;;;;;;;;;;;;5013188;28;19917;-81
2023/11/21 00:27:52;;;;;;;;;;;17.20;89.60;;;;;;5013141;28;19914;-81
2023/11/21 00:30:17;;;;;;;;;;;17.10;92.10;;;;;;5012671;28;19956;-71
2023/11/21 00:32:43;;;;;;;;;;;17.20;91.90;;;;;;5013031;28;19955;-71
2023/11/21 00:35:08;;;;;;;;;;;17.20;92.10;;;;;;5012930;28;19960;-71
2023/11/21 00:37:34;;;;;;;;;;;17.20;91.80;;;;;;5012895;28;20380;-71
2023/11/21 00:39:59;;;;;;;;;;;17.20;92.10;;;;;;5012929;28;19955;-71
2023/11/21 00:42:25;;;;;;;;;;;17.40;92.10;;;;;;5012990;28;19909;-71
2023/11/21 00:44:50;;;;;;;;;;;17.30;92.10;;;;;;5013034;28;19957;-71
2023/11/21 00:47:16;;;;;;;;;;;17.10;92.00;;;;;;5012894;28;19919;-71
2023/11/21 00:49:42;;;;;;;;;;;17.30;92.10;;;;;;5012832;28;19909;-71
2023/11/21 00:52:07;;;;;;;;;;;17.30;92.10;;;;;;5012790;28;20395;-71
2023/11/21 00:54:33;;;;;;;;;;;17.20;92.10;;;;;;5012673;28;19910;-71
2023/11/21 00:56:59;;;;;;;;;;;17.20;91.90;;;;;;5013013;28;20015;-71
2023/11/21 00:59:24;;;;;;;;;;;17.20;92.20;;;;;;5012703;28;20396;-71
2023/11/21 01:01:50;;;;;;;;;;;17.20;91.90;;;;;;5012382;28;20304;-71
2023/11/21 01:04:15;;;;;;;;;;;17.30;92.20;;;;;;5012854;28;19952;-71
2023/11/21 01:06:41;;;;;;;;;;;17.30;92.00;;;;;;5012744;28;20000;-71
2023/11/21 01:09:08;;;;;;;;;;;17.30;92.20;;;;;;5012693;28;19928;-71
2023/11/21 01:11:37;;;;;;;;;;;17.40;92.10;;;;;;5012517;28;20368;-72
2023/11/21 01:14:04;;;;;;;;;;;17.20;89.80;;;;;;5012892;28;19910;-71
2023/11/21 01:16:29;;;;;;;;;;;17.30;92.00;;;;;;5012457;28;20399;-71
2023/11/21 01:18:55;;;;;;;;;;;17.30;92.00;;;;;;5012725;28;19910;-71
2023/11/21 01:21:20;;;;;;;;;;;17.40;92.10;;;;;;5012694;28;20308;-71
2023/11/21 01:23:47;;;;;;;;;;;17.40;91.90;;;;;;5012537;28;20394;-71
2023/11/21 01:26:13;;;;;;;;;;;17.20;92.10;;;;;;5012547;28;20292;-71
2023/11/21 01:28:38;;;;;;;;;;;17.30;92.10;;;;;;5012415;28;19909;-71
2023/11/21 01:31:04;;;;;;;;;;;17.30;92.10;;;;;;5012326;28;19909;-71
2023/11/21 01:33:29;;;;;;;;;;;17.20;91.80;;;;;;5012382;28;19921;-71
2023/11/21 01:35:55;;;;;;;;;;;17.30;92.20;;;;;;5012314;28;19910;-71
2023/11/21 01:38:21;;;;;;;;;;;17.20;92.00;;;;;;5012426;28;19909;-71
2023/11/21 01:40:47;;;;;;;;;;;17.30;92.00;;;;;;5012324;28;20397;-71
2023/11/21 01:43:13;;;;;;;;;;;17.20;92.00;;;;;;5015615;28;19918;-70
2023/11/21 01:45:39;;;;;;;;;;;17.20;92.40;;;;;;5016229;28;19949;-71
2023/11/21 01:48:06;;;;;;;;;;;17.20;91.90;;;;;;5016095;28;19936;-71
2023/11/21 01:50:33;;;;;;;;;;;17.30;92.20;;;;;;5016074;28;19980;-71
2023/11/21 01:52:59;;;;;;;;;;;17.30;92.20;;;;;;5016032;28;19932;-71
2023/11/21 01:55:25;;;;;;;;;;;16.80;92.10;;;;;;5016079;28;19910;-71
2023/11/21 01:57:50;;;;;;;;;;;17.30;92.10;;;;;;5015887;28;19909;-71
2023/11/21 02:00:16;;;;;;;;;;;17.30;92.10;;;;;;5015929;28;19913;-71
2023/11/21 02:02:48;;;;;;;;;;;17.30;91.90;;;;;;5015563;28;20402;-71
2023/11/21 02:05:21;;;;;;;;;;;17.30;89.80;;;;;;5015732;28;20376;-71
2023/11/21 02:07:52;;;;;;;;;;;17.30;89.50;;;;;;5015748;28;20319;-71
2023/11/21 02:10:22;;;;;;;;;;;17.30;92.10;;;;;;5015679;28;19917;-72
2023/11/21 02:12:49;;;;;;;;;;;17.20;92.20;;;;;;5015953;28;19910;-71
2023/11/21 02:15:19;;;;;;;;;;;17.20;92.30;;;;;;5015715;28;19910;-71
2023/11/21 02:17:53;;;;;;;;;;;17.30;92.30;;;;;;5015868;28;19909;-71
2023/11/21 02:20:20;;;;;;;;;;;17.20;92.40;;;;;;5015602;28;19910;-71
2023/11/21 02:22:59;;;;;;;;;;;17.30;92.40;;;;;;5015675;28;20007;-71
2023/11/21 02:25:25;;;;;;;;;;;17.30;90.10;;;;;;5015811;28;19987;-71
2023/11/21 02:27:51;;;;;;;;;;;17.30;92.20;;;;;;5015695;28;20372;-71
2023/11/21 02:30:18;;;;;;;;;;;17.20;92.20;;;;;;5015593;28;19952;-71
2023/11/21 02:32:44;;;;;;;;;;;17.30;92.30;;;;;;5015311;28;20383;-72
2023/11/21 02:35:12;;;;;;;;;;;17.30;92.40;;;;;;5015426;28;19910;-71
2023/11/21 02:37:38;;;;;;;;;;;17.30;92.60;;;;;;5015947;28;19941;-72
2023/11/21 02:40:06;;;;;;;;;;;17.30;92.50;;;;;;5015408;28;19913;-71
2023/11/21 02:42:32;;;;;;;;;;;17.30;91.40;;;;;;5015078;28;20395;-71
2023/11/21 02:44:58;;;;;;;;;;;17.30;92.40;;;;;;5015005;28;19918;-71
2023/11/21 02:47:23;;;;;;;;;;;17.30;92.20;;;;;;4997401;28;19948;-71
2023/11/21 02:49:49;;;;;;;;;;;17.30;92.40;;;;;;5015058;28;19909;-71
2023/11/21 02:52:16;;;;;;;;;;;17.40;92.40;;;;;;5014635;28;19909;-71
2023/11/21 02:54:42;;;;;;;;;;;17.20;92.40;;;;;;5014894;28;19918;-71
2023/11/21 02:57:08;;;;;;;;;;;17.30;92.40;;;;;;5015031;28;19956;-71
2023/11/21 02:59:34;;;;;;;;;;;17.30;92.50;;;;;;5015043;28;19957;-72
2023/11/21 03:02:00;;;;;;;;;;;17.20;92.20;;;;;;5014429;28;19922;-71
2023/11/21 03:04:26;;;;;;;;;;;17.30;92.30;;;;;;5015357;28;19979;-82
2023/11/21 03:06:51;;;;;;;;;;;17.40;92.40;;;;;;5014597;28;19909;-83
2023/11/21 03:09:17;;;;;;;;;;;17.40;92.50;;;;;;5014607;28;19909;-83
2023/11/21 03:11:42;;;;;;;;;;;17.30;92.40;;;;;;5014800;28;19916;-82
2023/11/21 03:14:08;;;;;;;;;;;17.40;92.50;;;;;;5014582;28;20011;-83
2023/11/21 03:16:33;;;;;;;;;;;17.30;92.50;;;;;;5014767;28;19963;-83
2023/11/21 03:18:58;;;;;;;;;;;17.30;92.60;;;;;;5014467;28;20364;-83
2023/11/21 03:21:24;;;;;;;;;;;17.30;92.50;;;;;;5014485;28;19964;-83
2023/11/21 03:23:50;;;;;;;;;;;17.30;92.60;;;;;;5014583;28;20372;-84
2023/11/21 03:26:16;;;;;;;;;;;17.30;92.60;;;;;;5014408;28;20372;-84
2023/11/21 03:28:41;;;;;;;;;;;17.30;92.40;;;;;;5014620;28;19909;-83
2023/11/21 03:31:08;;;;;;;;;;;17.30;92.80;;;;;;5014249;28;19909;-83
2023/11/21 03:33:35;;;;;;;;;;;17.30;92.50;;;;;;5014813;28;19956;-83
2023/11/21 03:36:00;;;;;;;;;;;17.30;92.50;;;;;;5014193;28;20323;-83
2023/11/21 03:38:26;;;;;;;;;;;17.40;92.60;;;;;;5014203;28;19960;-83
2023/11/21 03:40:51;;;;;;;;;;;17.30;92.50;;;;;;5014137;28;19963;-83
2023/11/21 03:43:17;;;;;;;;;;;17.30;92.50;;;;;;5013883;28;19972;-83
2023/11/21 03:45:42;;;;;;;;;;;17.40;92.50;;;;;;5014075;28;20001;-84
2023/11/21 03:48:08;;;;;;;;;;;17.30;92.20;;;;;;5013959;28;19913;-83
2023/11/21 03:50:34;;;;;;;;;;;17.30;92.50;;;;;;5013841;28;19971;-83
2023/11/21 03:53:00;;;;;;;;;;;17.30;92.60;;;;;;5013848;28;19917;-83
2023/11/21 03:55:25;;;;;;;;;;;17.30;92.50;;;;;;5013650;28;19918;-83
2023/11/21 03:57:51;;;;;;;;;;;17.30;92.40;;;;;;5013871;28;19964;-83
2023/11/21 04:00:17;;;;;;;;;;;17.30;92.50;;;;;;5013537;28;19914;-83
2023/11/21 04:02:42;;;;;;;;;;;17.20;92.40;;;;;;5013960;28;20034;-83
2023/11/21 04:05:09;;;;;;;;;;;17.30;92.60;;;;;;5013010;28;20372;-83
2023/11/21 04:07:34;;;;;;;;;;;17.20;92.40;;;;;;5013912;28;19988;-83
2023/11/21 04:10:00;;;;;;;;;;;17.30;92.40;;;;;;5013639;28;19957;-83
2023/11/21 04:12:25;;;;;;;;;;;17.30;92.50;;;;;;5013576;28;19940;-83
2023/11/21 04:14:51;;;;;;;;;;;17.30;92.60;;;;;;5013690;28;20023;-71
2023/11/21 04:17:20;;;;;;;;;;;17.30;92.50;;;;;;5013365;28;19913;-71
2023/11/21 04:19:46;;;;;;;;;;;17.50;90.40;;;;;;5013435;28;19910;-72
2023/11/21 04:22:11;;;;;;;;;;;17.30;92.60;;;;;;5013564;28;19955;-71
2023/11/21 04:24:37;;;;;;;;;;;17.30;92.60;;;;;;5013193;28;19917;-71
2023/11/21 04:27:02;;;;;;;;;;;17.20;92.40;;;;;;5013340;28;19910;-71
2023/11/21 04:29:28;;;;;;;;;;;17.40;92.40;;;;;;5013167;28;20288;-71
2023/11/21 04:31:54;;;;;;;;;;;17.30;92.40;;;;;;5013784;28;19910;-83
2023/11/21 04:34:19;;;;;;;;;;;17.30;92.60;;;;;;5013197;28;19909;-83
2023/11/21 04:36:44;;;;;;;;;;;17.30;92.50;;;;;;5013192;28;20369;-82
2023/11/21 04:39:11;;;;;;;;;;;17.30;92.60;;;;;;5013110;28;19909;-83
2023/11/21 04:41:39;;;;;;;;;;;17.30;92.40;;;;;;5013423;28;19956;-84
2023/11/21 04:44:05;;;;;;;;;;;17.30;92.50;;;;;;5013018;28;19924;-83
2023/11/21 04:46:31;;;;;;;;;;;17.30;92.20;;;;;;5012911;28;20261;-83
2023/11/21 04:48:57;;;;;;;;;;;16.80;92.30;;;;;;5013204;28;19909;-83
2023/11/21 04:51:24;;;;;;;;;;;17.30;92.50;;;;;;5012786;28;20395;-83
2023/11/21 04:53:50;;;;;;;;;;;17.30;92.60;;;;;;5013078;28;19916;-83
2023/11/21 04:56:16;;;;;;;;;;;17.30;92.50;;;;;;5012978;28;19992;-83
2023/11/21 04:58:42;;;;;;;;;;;17.40;92.70;;;;;;5013587;28;19998;-84
2023/11/21 05:01:08;;;;;;;;;;;17.40;92.60;;;;;;5013072;28;19955;-84
2023/11/21 05:03:34;;;;;;;;;;;17.30;92.40;;;;;;5012450;28;19922;-84
2023/11/21 05:06:00;;;;;;;;;;;17.40;92.60;;;;;;5013052;28;19956;-84
2023/11/21 05:08:26;;;;;;;;;;;17.30;92.60;;;;;;5012975;28;19914;-84
2023/11/21 05:10:53;;;;;;;;;;;17.30;92.70;;;;;;5013065;28;19910;-84
2023/11/21 05:13:20;;;;;;;;;;;17.70;92.50;;;;;;5012635;28;19913;-84
2023/11/21 05:15:46;;;;;;;;;;;17.30;92.80;;;;;;5014165;28;20251;-83
2023/11/21 05:18:13;;;;;;;;;;;17.40;92.60;;;;;;5017016;28;19916;-83
2023/11/21 05:20:40;;;;;;;;;;;17.40;92.70;;;;;;5017141;28;19960;-83
2023/11/21 05:23:07;;;;;;;;;;;17.30;92.70;;;;;;5016738;28;19921;-83
2023/11/21 05:25:33;;;;;;;;;;;17.40;92.80;;;;;;5016657;28;19909;-83
2023/11/21 05:28:01;;;;;;;;;;;17.40;92.60;;;;;;5017447;28;19990;-71
2023/11/21 05:30:27;;;;;;;;;;;17.30;92.80;;;;;;5016775;28;19909;-71
2023/11/21 05:32:53;;;;;;;;;;;17.30;92.60;;;;;;5016501;28;20399;-71
2023/11/21 05:35:19;;;;;;;;;;;17.40;92.90;;;;;;5016443;28;19910;-71
2023/11/21 05:37:45;;;;;;;;;;;17.30;92.80;;;;;;5016308;28;20036;-71
2023/11/21 05:40:12;;;;;;;;;;;17.30;92.90;;;;;;5016443;28;19926;-71
2023/11/21 05:42:38;;;;;;;;;;;17.40;92.60;;;;;;5016496;28;19910;-71
2023/11/21 05:45:11;;;;;;;;;;;17.40;93.00;;;;;;5016233;28;20376;-71
2023/11/21 05:47:39;;;;;;;;;;;17.40;91.70;;;;;;5016598;28;20437;-71
2023/11/21 05:50:05;;;;;;;;;;;17.50;93.10;;;;;;5016576;28;19909;-71
2023/11/21 05:52:32;;;;;;;;;;;17.30;92.40;;;;;;5016470;28;19964;-71
2023/11/21 05:54:58;;;;;;;;;;;17.30;92.80;;;;;;5016124;28;19909;-71
2023/11/21 05:57:24;;;;;;;;;;;17.30;93.00;;;;;;5016896;28;19910;-71
2023/11/21 05:59:50;;;;;;;;;;;17.40;93.10;;;;;;5016219;28;19913;-71
2023/11/21 06:02:18;;;;;;;;;;;17.40;92.80;;;;;;5016010;28;19922;-71
2023/11/21 06:04:44;;;;;;;;;;;17.30;93.00;;;;;;5015962;28;20411;-71
2023/11/21 06:07:10;;;;;;;;;;;17.40;93.00;;;;;;5016229;28;19910;-71
2023/11/21 06:09:37;;;;;;;;;;;17.40;93.10;;;;;;5016261;28;19921;-71
2023/11/21 06:12:03;;;;;;;;;;;17.40;93.10;;;;;;5015733;28;20533;-71
2023/11/21 06:14:29;;;;;;;;;;;17.30;93.10;;;;;;5016087;28;19913;-72
2023/11/21 06:16:57;;;;;;;;;;;17.40;93.10;;;;;;5015965;28;19910;-71
2023/11/21 06:19:23;;;;;;;;;;;17.40;93.10;;;;;;5015596;28;19910;-72
2023/11/21 06:21:49;;;;;;;;;;;17.40;93.00;;;;;;5015953;28;19909;-71
2023/11/21 06:24:15;;;;;;;;;;;17.40;93.10;;;;;;5016075;28;19918;-72
2023/11/21 06:26:41;;;;;;;;;;;17.40;93.10;;;;;;5015779;28;19967;-72
2023/11/21 06:29:07;;;;;;;;;;;17.50;93.20;;;;;;5014918;28;20000;-71
2023/11/21 06:31:32;;;;;;;;;;;17.30;93.10;;;;;;5015622;28;19910;-72
2023/11/21 06:33:59;;;;;;;;;;;17.40;93.00;;;;;;5015390;28;19909;-72
2023/11/21 06:36:26;;;;;;;;;;;17.40;92.90;;;;;;5015565;28;20309;-72
2023/11/21 06:38:51;;;;;;;;;;;17.50;93.20;;;;;;5015195;28;20008;-71
2023/11/21 06:41:17;;;;;;;;;;;17.70;93.20;;;;;;5015282;28;19960;-72
2023/11/21 06:43:46;;;;;;;;;;;17.50;93.10;;;;;;5015379;28;19933;-72
2023/11/21 06:46:12;;;;;;;;;;;17.50;93.10;;;;;;5015265;28;19932;-71
2023/11/21 06:48:38;;;;;;;;;;;17.50;93.20;;;;;;5015083;28;19909;-72
2023/11/21 06:51:04;;;;;;;;;;;17.40;93.10;;;;;;5015007;28;19909;-73
2023/11/21 06:53:29;;;;;;;;;;;17.50;93.00;;;;;;4998348;28;19983;-73
2023/11/21 06:56:15;;;;;;;;;;;17.40;92.90;;;;;;5014816;28;19909;-71
2023/11/21 06:59:01;;;;;;;;;;;17.50;93.20;;;;;;5014623;28;19909;-73
2023/11/21 07:01:46;;;;;;;;;;;17.40;93.00;;;;;;5014425;28;19909;-72
2023/11/21 07:04:32;;;;;;;;;;;17.50;93.10;;;;;;5014632;28;20376;-72
2023/11/21 07:07:18;;;;;;;;;;;17.50;93.30;;;;;;5014556;28;19917;-72
2023/11/21 07:09:43;;;;;;;;;;;17.50;93.40;;;;;;5014530;28;19924;-72
2023/11/21 07:12:10;;;;;;;;;;;17.50;93.30;;;;;;5014514;28;19988;-72
2023/11/21 07:14:36;;;;;;;;;;;17.40;93.10;;;;;;5014541;28;20350;-72
2023/11/21 07:17:02;;;;;;;;;;;17.60;93.60;;;;;;5014551;28;19917;-72
2023/11/21 07:19:28;;;;;;;;;;;17.50;92.80;;;;;;5014626;28;19909;-72
2023/11/21 07:21:55;;;;;;;;;;;17.50;93.20;;;;;;5014560;28;19925;-72
2023/11/21 07:24:21;;;;;;;;;;;17.50;93.30;;;;;;5014733;28;19923;-72
2023/11/21 07:26:47;;;;;;;;;;;17.50;93.40;;;;;;5014361;28;19913;-72
2023/11/21 07:29:13;;;;;;;;;;;17.60;93.40;;;;;;4997106;28;19931;-72
2023/11/21 07:31:39;;;;;;;;;;;17.60;93.20;;;;;;5014409;28;20427;-72
2023/11/21 07:34:05;;;;;;;;;;;17.60;93.30;;;;;;5014164;28;19964;-71
2023/11/21 07:36:31;;;;;;;;;;;17.50;93.00;;;;;;5014488;28;19956;-72
2023/11/21 07:38:57;;;;;;;;;;;17.60;93.30;;;;;;5013564;28;19913;-72
2023/11/21 07:41:23;;;;;;;;;;;17.50;93.20;;;;;;5014711;28;20269;-73
2023/11/21 07:43:49;;;;;;;;;;;17.60;93.60;;;;;;5014337;28;20343;-72
2023/11/21 07:46:15;;;;;;;;;;;17.50;93.30;;;;;;5013992;28;20318;-73
2023/11/21 07:48:42;;;;;;;;;;;17.60;93.30;;;;;;5014023;28;19915;-72
2023/11/21 07:51:08;;;;;;;;;;;17.60;93.20;;;;;;5013926;28;19963;-71
2023/11/21 07:53:34;;;;;;;;;;;17.60;93.30;;;;;;5014117;28;19909;-72
2023/11/21 07:56:07;;;;;;;;;;;17.50;93.20;;;;;;5013717;28;20387;-70
2023/11/21 07:58:34;;;;;;;;;;;17.60;90.90;;;;;;5014050;28;20288;-71
2023/11/21 08:01:00;;;;;;;;;;;17.60;93.10;;;;;;5013704;28;19916;-70
2023/11/21 08:03:31;;;;;;;;;;;17.60;93.00;;;;;;5013505;28;20071;-70
2023/11/21 08:05:58;;;;;;;;;;;17.60;92.10;;;;;;5013723;28;20394;-70
2023/11/21 08:08:23;;;;;;;;;;;17.60;93.20;;;;;;5014303;28;19910;-79
2023/11/21 08:10:55;;;;;;;;;;;17.60;93.20;;;;;;5013930;28;20423;-80
2023/11/21 08:13:22;;;;;;;;;;;17.70;93.20;;;;;;5013443;28;20372;-76
2023/11/21 08:15:47;;;;;;;;;;;17.60;93.40;;;;;;5013530;28;19910;-76
2023/11/21 08:18:14;;;;;;;;;;;17.60;93.20;;;;;;5013407;28;19909;-76
2023/11/21 08:20:40;;;;;;;;;;;17.60;93.20;;;;;;5013768;28;19910;-74
2023/11/21 08:23:06;;;;;;;;;;;17.60;93.10;;;;;;5013657;28;19971;-74
2023/11/21 08:25:33;;;;;;;;;;;17.60;93.20;;;;;;5014168;28;19913;-75
2023/11/21 08:27:59;;;;;;;;;;;17.80;93.10;;;;;;5013446;28;20311;-74
2023/11/21 08:30:25;;;;;;;;;;;17.70;93.10;;;;;;5013449;28;19972;-75
2023/11/21 08:32:53;;;;;;;;;;;17.50;92.90;;;;;;5013462;28;20363;-75
2023/11/21 08:35:19;;;;;;;;;;;17.70;93.10;;;;;;5013345;28;19916;-75
2023/11/21 08:37:45;;;;;;;;;;;17.70;93.20;;;;;;5013687;28;19909;-75
2023/11/21 08:40:16;;;;;;;;;;;17.60;93.10;;;;;;5013114;28;19917;-75
2023/11/21 08:42:42;;;;;;;;;;;17.60;92.60;;;;;;5013400;28;20372;-75
2023/11/21 08:45:09;;;;;;;;;;;17.70;93.00;;;;;;5013026;28;19917;-75
2023/11/21 08:47:36;;;;;;;;;;;17.70;92.30;;;;;;5013416;28;19910;-69
2023/11/21 08:50:02;;;;;;;;;;;17.70;93.10;;;;;;5012914;28;19996;-68
2023/11/21 08:52:27;;;;;;;;;;;17.60;92.80;;;;;;5013306;28;19909;-69
2023/11/21 08:54:55;;;;;;;;;;;17.70;93.00;;;;;;5012918;28;19916;-69
2023/11/21 08:57:24;;;;;;;;;;;17.70;93.00;;;;;;5012906;28;19909;-69
2023/11/21 08:59:55;;;;;;;;;;;17.60;90.70;;;;;;5012867;28;19909;-69
2023/11/21 09:02:26;;;;;;;;;;;17.70;92.90;;;;;;5012790;28;19988;-69
2023/11/21 09:04:52;;;;;;;;;;;17.70;90.70;;;;;;5013190;28;20009;-70
2023/11/21 09:07:20;;;;;;;;;;;17.90;93.00;;;;;;5012995;28;19917;-69
2023/11/21 09:09:46;;;;;;;;;;;17.70;93.10;;;;;;5012980;28;20017;-71
2023/11/21 09:12:12;;;;;;;;;;;17.70;93.10;;;;;;5014205;28;19961;-69
2023/11/21 09:14:38;;;;;;;;;;;17.80;93.00;;;;;;5013782;28;20372;-69
2023/11/21 09:17:03;;;;;;;;;;;17.80;92.90;;;;;;5013118;28;19909;-69
2023/11/21 09:19:29;;;;;;;;;;;17.70;93.10;;;;;;5012704;28;20612;-69
2023/11/21 09:21:57;;;;;;;;;;;17.80;92.90;;;;;;5012741;28;20012;-70
2023/11/21 09:24:22;;;;;;;;;;;17.80;93.00;;;;;;5012591;28;19917;-69
2023/11/21 09:26:48;;;;;;;;;;;17.80;93.00;;;;;;5012954;28;19989;-70
2023/11/21 09:29:14;;;;;;;;;;;17.70;93.00;;;;;;5012587;28;20312;-70
2023/11/21 09:31:40;;;;;;;;;;;17.70;93.00;;;;;;5012508;28;19996;-72
2023/11/21 09:34:06;;;;;;;;;;;17.70;93.00;;;;;;5013378;28;20017;-71
2023/11/21 09:36:33;;;;;;;;;;;17.70;93.00;;;;;;5012871;28;20260;-69
2023/11/21 09:39:02;;;;;;;;;;;17.70;92.80;;;;;;5012876;28;19916;-71
2023/11/21 09:41:45;;;;;;;;;;;17.80;93.00;;;;;;5012328;28;19909;-70
2023/11/21 09:44:13;;;;;;;;;;;17.90;93.00;;;;;;5012693;28;19968;-70
2023/11/21 09:46:42;;;;;;;;;;;17.80;93.00;;;;;;5012767;28;20000;-71
2023/11/21 09:49:12;;;;;;;;;;;17.70;90.80;;;;;;5012448;28;19917;-71
2023/11/21 09:51:42;;;;;;;;;;;17.70;93.10;;;;;;5012720;28;19910;-71
2023/11/21 09:54:15;;;;;;;;;;;17.80;90.80;;;;;;5012353;28;19910;-70
2023/11/21 09:56:42;;;;;;;;;;;17.80;90.80;;;;;;5012890;28;19917;-70
2023/11/21 09:59:11;;;;;;;;;;;17.70;92.80;;;;;;5012248;28;19910;-70
2023/11/21 10:01:40;;;;;;;;;;;17.70;92.90;;;;;;5012568;28;20008;-70
2023/11/21 10:04:11;;;;;;;;;;;17.70;90.50;;;;;;5011931;28;20284;-79
2023/11/21 10:06:43;;;;;;;;;;;18.00;93.10;;;;;;5016280;28;19996;-79
2023/11/21 10:09:12;;;;;;;;;;;17.80;90.70;;;;;;5015950;28;19949;-79
2023/11/21 10:11:41;;;;;;;;;;;17.70;90.70;;;;;;5016112;28;19910;-79
2023/11/21 10:14:12;;;;;;;;;;;17.80;91.10;;;;;;5016236;28;20374;-79
2023/11/21 10:16:39;;;;;;;;;;;17.80;93.10;;;;;;5016091;28;19914;-79
2023/11/21 10:19:06;;;;;;;;;;;17.80;93.00;;;;;;5016003;28;19917;-79
2023/11/21 10:21:32;;;;;;;;;;;17.80;93.00;;;;;;5015973;28;20275;-79
2023/11/21 10:23:58;;;;;;;;;;;17.80;92.90;;;;;;5015879;28;19932;-79
2023/11/21 10:26:26;;;;;;;;;;;17.80;93.00;;;;;;5015989;28;20006;-79
2023/11/21 10:29:05;;;;;;;;;;;17.80;93.00;;;;;;5016089;28;19910;-78
2023/11/21 10:31:34;;;;;;;;;;;17.80;90.80;;;;;;5016363;28;19909;-79
2023/11/21 10:34:14;;;;;;;;;;;17.70;92.90;;;;;;4998121;28;19932;-79
2023/11/21 10:36:42;;;;;;;;;;;17.80;90.70;;;;;;5015347;28;19923;-79
2023/11/21 10:39:09;;;;;;;;;;;17.80;93.10;;;;;;5015346;28;20368;-79
2023/11/21 10:41:35;;;;;;;;;;;17.90;93.10;;;;;;5015621;28;19913;-79
2023/11/21 10:44:04;;;;;;;;;;;17.80;93.10;;;;;;5015212;28;19979;-79
2023/11/21 10:46:30;;;;;;;;;;;17.80;93.10;;;;;;5015540;28;19910;-79
2023/11/21 10:48:56;;;;;;;;;;;17.80;93.10;;;;;;5015583;28;19933;-79
2023/11/21 10:51:24;;;;;;;;;;;17.80;92.90;;;;;;5015614;28;19909;-79
2023/11/21 10:53:53;;;;;;;;;;;17.80;93.00;;;;;;5015567;28;19914;-79
2023/11/21 10:56:21;;;;;;;;;;;17.80;90.60;;;;;;5015481;28;19910;-79
2023/11/21 10:58:48;;;;;;;;;;;17.80;93.00;;;;;;5015460;28;19956;-79
2023/11/21 11:01:17;;;;;;;;;;;17.80;93.10;;;;;;5015347;28;20268;-79
2023/11/21 11:03:44;;;;;;;;;;;17.70;92.80;;;;;;5014663;28;20005;-70
2023/11/21 11:06:11;;;;;;;;;;;17.80;93.10;;;;;;5014938;28;19910;-70
2023/11/21 11:08:38;;;;;;;;;;;17.80;93.00;;;;;;5014930;28;20025;-70
2023/11/21 11:11:05;;;;;;;;;;;17.80;92.80;;;;;;5015307;28;20283;-71
2023/11/21 11:13:31;;;;;;;;;;;17.90;93.10;;;;;;5014578;28;20016;-70
2023/11/21 11:15:59;;;;;;;;;;;17.80;92.80;;;;;;5014643;28;19910;-70
2023/11/21 11:18:25;;;;;;;;;;;17.80;93.00;;;;;;5015449;28;20328;-69
2023/11/21 11:20:53;;;;;;;;;;;17.90;92.90;;;;;;5014904;28;19929;-70
2023/11/21 11:23:28;;;;;;;;;;;17.90;92.90;;;;;;5014794;28;19919;-71
2023/11/21 11:26:09;;;;;;;;;;;17.90;90.70;;;;;;5014759;28;19980;-71
2023/11/21 11:28:42;;;;;;;;;;;17.90;90.70;;;;;;5014978;28;20327;-71
2023/11/21 11:31:15;;;;;;;;;;;17.90;93.10;;;;;;5014790;28;19909;-70
2023/11/21 11:33:43;;;;;;;;;;;17.80;90.60;;;;;;5014804;28;19956;-71
2023/11/21 11:36:19;;;;;;;;;;;17.90;92.80;;;;;;5014612;28;19909;-72
2023/11/21 11:38:45;;;;;;;;;;;17.80;90.60;;;;;;5014598;28;19963;-71
2023/11/21 11:41:11;;;;;;;;;;;17.80;93.00;;;;;;5014166;28;20415;-71
2023/11/21 11:43:55;;;;;;;;;;;17.80;93.00;;;;;;5014413;28;20348;-71
2023/11/21 11:46:39;;;;;;;;;;;17.90;91.00;;;;;;5014670;28;19956;-71
2023/11/21 11:49:05;;;;;;;;;;;16.30;92.60;;;;;;5014370;28;19910;-71
2023/11/21 11:51:32;;;;;;;;;;;17.80;93.00;;;;;;5014560;28;19909;-72
2023/11/21 11:53:57;;;;;;;;;;;17.80;92.90;;;;;;5014293;28;19910;-71
2023/11/21 11:56:35;;;;;;;;;;;17.90;93.00;;;;;;5014215;28;19932;-71
2023/11/21 11:59:02;;;;;;;;;;;18.00;90.60;;;;;;5014309;28;20376;-72
2023/11/21 12:01:29;;;;;;;;;;;17.80;92.70;;;;;;5014097;28;19909;-71
2023/11/21 12:04:34;;;;;;;;;;;17.90;93.10;;;;;;5013694;28;20299;-71
2023/11/21 12:07:02;;;;;;;;;;;18.10;90.60;;;;;;5013743;28;19909;-72
2023/11/21 12:09:29;;;;;;;;;;;17.90;93.00;;;;;;5013644;28;19917;-71
2023/11/21 12:11:56;;;;;;;;;;;17.80;92.90;;;;;;5013737;28;20387;-71
2023/11/21 12:14:23;;;;;;;;;;;17.80;92.80;;;;;;5013926;28;19917;-71
2023/11/21 12:16:49;;;;;;;;;;;17.80;92.90;;;;;;5013933;28;19956;-71
2023/11/21 12:19:15;;;;;;;;;;;17.90;92.80;;;;;;5013528;28;19909;-72
2023/11/21 12:21:41;;;;;;;;;;;17.90;92.80;;;;;;5013839;28;20004;-71
2023/11/21 12:24:13;;;;;;;;;;;17.90;93.00;;;;;;5013630;28;20351;-72
2023/11/21 12:26:42;;;;;;;;;;;17.80;91.80;;;;;;5013222;28;19921;-71
2023/11/21 12:29:08;;;;;;;;;;;17.80;90.50;;;;;;5013652;28;20253;-71
2023/11/21 12:31:35;;;;;;;;;;;17.90;92.80;;;;;;5013689;28;20011;-71
2023/11/21 12:34:00;;;;;;;;;;;17.70;92.80;;;;;;5013203;28;19909;-72
2023/11/21 12:36:28;;;;;;;;;;;17.80;92.70;;;;;;5013611;28;19913;-72
2023/11/21 12:38:54;;;;;;;;;;;17.90;92.80;;;;;;5013549;28;19996;-72
2023/11/21 12:41:21;;;;;;;;;;;17.80;92.90;;;;;;5013425;28;20010;-72
2023/11/21 12:43:47;;;;;;;;;;;17.90;92.70;;;;;;5013307;28;19918;-71
2023/11/21 12:46:13;;;;;;;;;;;17.80;92.80;;;;;;5013435;28;20426;-72
2023/11/21 12:48:42;;;;;;;;;;;17.80;92.60;;;;;;5013079;28;19909;-72
2023/11/21 12:51:08;;;;;;;;;;;17.80;92.90;;;;;;5013161;28;20268;-71
2023/11/21 12:53:38;;;;;;;;;;;17.80;92.70;;;;;;5013129;28;19913;-71
2023/11/21 12:56:10;;;;;;;;;;;17.60;92.70;;;;;;5013019;28;20011;-72
2023/11/21 12:58:37;;;;;;;;;;;17.80;90.50;;;;;;5012976;28;19916;-72
2023/11/21 13:01:04;;;;;;;;;;;17.90;92.90;;;;;;5013010;28;20356;-72
2023/11/21 13:03:29;;;;;;;;;;;17.80;92.70;;;;;;5012585;28;19944;-72
2023/11/21 13:05:58;;;;;;;;;;;17.80;91.80;;;;;;5011995;28;21465;-72
2023/11/21 13:08:24;;;;;;;;;;;17.90;92.90;;;;;;5012838;28;20008;-71
2023/11/21 13:10:51;;;;;;;;;;;17.80;92.90;;;;;;5013291;28;20303;-72
2023/11/21 13:13:17;;;;;;;;;;;17.80;92.90;;;;;;5012581;28;19920;-72
2023/11/21 13:15:50;;;;;;;;;;;17.90;92.70;;;;;;5012649;28;19917;-72
2023/11/21 13:18:16;;;;;;;;;;;17.80;90.60;;;;;;5012995;28;19993;-72
2023/11/21 13:20:43;;;;;;;;;;;17.90;93.00;;;;;;5012969;28;19910;-73
2023/11/21 13:23:11;;;;;;;;;;;17.90;93.00;;;;;;5012713;28;19916;-72
2023/11/21 13:25:40;;;;;;;;;;;17.90;93.00;;;;;;5012805;28;19968;-73
2023/11/21 13:28:06;;;;;;;;;;;17.90;93.10;;;;;;5012881;28;19913;-72
2023/11/21 13:30:35;;;;;;;;;;;17.90;92.80;;;;;;5012557;28;19910;-72
2023/11/21 13:33:02;;;;;;;;;;;17.90;92.80;;;;;;5012546;28;20528;-73
2023/11/21 13:35:37;;;;;;;;;;;17.90;92.90;;;;;;5012742;28;20335;-72
2023/11/21 13:38:10;;;;;;;;;;;18.00;93.30;;;;;;5014053;28;19910;-72
2023/11/21 13:40:42;;;;;;;;;;;17.90;92.70;;;;;;5016713;28;19952;-71
2023/11/21 13:43:09;;;;;;;;;;;17.90;92.90;;;;;;5016433;28;19910;-78
2023/11/21 13:45:36;;;;;;;;;;;17.90;93.00;;;;;;5016319;28;19914;-77
2023/11/21 13:48:02;;;;;;;;;;;17.90;92.80;;;;;;5016618;28;20043;-77
2023/11/21 13:50:33;;;;;;;;;;;17.90;92.60;;;;;;5016195;28;19980;-77
2023/11/21 13:53:05;;;;;;;;;;;17.80;90.80;;;;;;5016658;28;19974;-77
2023/11/21 13:55:31;;;;;;;;;;;17.80;92.90;;;;;;5016130;28;19909;-77
2023/11/21 13:57:57;;;;;;;;;;;17.90;92.80;;;;;;5016135;28;19955;-77
2023/11/21 14:00:44;;;;;;;;;;;18.00;92.80;;;;;;5016148;28;19917;-77
2023/11/21 14:03:17;;;;;;;;;;;17.80;92.60;;;;;;5015963;28;20306;-77
2023/11/21 14:05:46;;;;;;;;;;;17.90;92.80;;;;;;5016036;28;19918;-77
2023/11/21 14:08:16;;;;;;;;;;;17.90;92.80;;;;;;5016252;28;19952;-77
2023/11/21 14:10:43;;;;;;;;;;;17.90;92.80;;;;;;5015891;28;19910;-77
2023/11/21 14:13:12;;;;;;;;;;;17.90;92.70;;;;;;5016200;28;20170;-77
2023/11/21 14:15:41;;;;;;;;;;;17.90;92.90;;;;;;5016174;28;20295;-77
2023/11/21 14:18:10;;;;;;;;;;;18.10;92.90;;;;;;5016133;28;19916;-77
2023/11/21 14:20:39;;;;;;;;;;;18.00;92.70;;;;;;5016042;28;19916;-77